sensor_id;sensor_type;location;lat;lon;timestamp;P1;durP1;ratioP1;P2;durP2;ratioP2
22571;SDS011;11452;53.368;14.658;2022-11-20T00:02:15;5.67;;;3.93;;
22571;SDS011;11452;53.368;14.658;2022-11-20T00:07:20;5.30;;;3.87;;
22571;SDS011;11452;53.368;14.658;2022-11-20T00:12:25;4.17;;;3.53;;
22571;SDS011;11452;53.368;14.658;2022-11-20T00:17:31;4.93;;;3.83;;
22571;SDS011;11452;53.368;14.658;2022-11-20T00:22:36;5.73;;;3.33;;
22571;SDS011;11452;53.368;14.658;2022-11-20T00:27:42;3.73;;;3.20;;
22571;SDS011;11452;53.368;14.658;2022-11-20T00:32:47;4.77;;;3.07;;
22571;SDS011;11452;53.368;14.658;2022-11-20T00:37:53;4.20;;;3.70;;
22571;SDS011;11452;53.368;14.658;2022-11-20T00:43:01;3.37;;;3.07;;
22571;SDS011;11452;53.368;14.658;2022-11-20T00:48:06;3.40;;;2.97;;
22571;SDS011;11452;53.368;14.658;2022-11-20T00:53:12;3.80;;;3.40;;
22571;SDS011;11452;53.368;14.658;2022-11-20T00:58:17;4.87;;;4.17;;
22571;SDS011;11452;53.368;14.658;2022-11-20T01:03:22;4.27;;;3.57;;
22571;SDS011;11452;53.368;14.658;2022-11-20T01:08:30;3.90;;;3.50;;
22571;SDS011;11452;53.368;14.658;2022-11-20T01:13:37;4.80;;;4.00;;
22571;SDS011;11452;53.368;14.658;2022-11-20T01:18:45;4.03;;;3.63;;
22571;SDS011;11452;53.368;14.658;2022-11-20T01:23:52;4.70;;;3.80;;
22571;SDS011;11452;53.368;14.658;2022-11-20T01:28:58;3.83;;;3.53;;
22571;SDS011;11452;53.368;14.658;2022-11-20T01:34:05;3.70;;;3.30;;
22571;SDS011;11452;53.368;14.658;2022-11-20T01:39:14;3.83;;;3.53;;
22571;SDS011;11452;53.368;14.658;2022-11-20T01:55:27;4.83;;;3.80;;
22571;SDS011;11452;53.368;14.658;2022-11-20T02:00:34;4.47;;;3.67;;
22571;SDS011;11452;53.368;14.658;2022-11-20T02:05:57;4.53;;;3.70;;
22571;SDS011;11452;53.368;14.658;2022-11-20T02:11:03;4.30;;;3.90;;
22571;SDS011;11452;53.368;14.658;2022-11-20T02:16:34;3.70;;;3.40;;
22571;SDS011;11452;53.368;14.658;2022-11-20T02:21:29;4.00;;;3.50;;
22571;SDS011;11452;53.368;14.658;2022-11-20T02:26:55;4.10;;;3.70;;
22571;SDS011;11452;53.368;14.658;2022-11-20T02:32:02;4.87;;;4.03;;
22571;SDS011;11452;53.368;14.658;2022-11-20T02:37:08;3.03;;;2.80;;
22571;SDS011;11452;53.368;14.658;2022-11-20T02:42:13;3.97;;;3.50;;
22571;SDS011;11452;53.368;14.658;2022-11-20T02:47:19;5.43;;;3.77;;
22571;SDS011;11452;53.368;14.658;2022-11-20T02:52:24;3.40;;;3.10;;
22571;SDS011;11452;53.368;14.658;2022-11-20T02:57:30;4.03;;;3.43;;
22571;SDS011;11452;53.368;14.658;2022-11-20T03:02:36;3.93;;;3.50;;
22571;SDS011;11452;53.368;14.658;2022-11-20T03:07:41;6.33;;;3.53;;
22571;SDS011;11452;53.368;14.658;2022-11-20T03:12:52;4.73;;;3.90;;
22571;SDS011;11452;53.368;14.658;2022-11-20T03:17:57;3.73;;;3.43;;
22571;SDS011;11452;53.368;14.658;2022-11-20T03:23:03;4.00;;;3.60;;
22571;SDS011;11452;53.368;14.658;2022-11-20T03:28:08;4.33;;;3.73;;
22571;SDS011;11452;53.368;14.658;2022-11-20T03:33:14;4.50;;;4.00;;
22571;SDS011;11452;53.368;14.658;2022-11-20T03:38:20;4.17;;;3.70;;
22571;SDS011;11452;53.368;14.658;2022-11-20T03:43:30;4.47;;;4.07;;
22571;SDS011;11452;53.368;14.658;2022-11-20T03:48:36;5.20;;;3.57;;
22571;SDS011;11452;53.368;14.658;2022-11-20T03:53:42;4.97;;;4.17;;
22571;SDS011;11452;53.368;14.658;2022-11-20T03:58:49;4.70;;;4.23;;
22571;SDS011;11452;53.368;14.658;2022-11-20T04:03:55;5.43;;;4.13;;
22571;SDS011;11452;53.368;14.658;2022-11-20T04:09:01;4.77;;;4.10;;
22571;SDS011;11452;53.368;14.658;2022-11-20T04:14:11;4.87;;;4.10;;
22571;SDS011;11452;53.368;14.658;2022-11-20T04:19:16;5.10;;;4.40;;
22571;SDS011;11452;53.368;14.658;2022-11-20T04:24:23;6.47;;;4.97;;
22571;SDS011;11452;53.368;14.658;2022-11-20T04:29:29;5.70;;;4.50;;
22571;SDS011;11452;53.368;14.658;2022-11-20T04:34:34;6.57;;;5.40;;
22571;SDS011;11452;53.368;14.658;2022-11-20T04:39:40;5.77;;;4.60;;
22571;SDS011;11452;53.368;14.658;2022-11-20T04:44:45;6.37;;;5.40;;
22571;SDS011;11452;53.368;14.658;2022-11-20T04:49:51;5.47;;;4.97;;
22571;SDS011;11452;53.368;14.658;2022-11-20T04:54:56;6.57;;;4.90;;
22571;SDS011;11452;53.368;14.658;2022-11-20T05:00:02;7.30;;;4.93;;
22571;SDS011;11452;53.368;14.658;2022-11-20T05:05:09;8.10;;;5.80;;
22571;SDS011;11452;53.368;14.658;2022-11-20T05:10:14;7.03;;;5.20;;
22571;SDS011;11452;53.368;14.658;2022-11-20T05:15:20;7.57;;;5.60;;
22571;SDS011;11452;53.368;14.658;2022-11-20T05:20:25;9.03;;;5.63;;
22571;SDS011;11452;53.368;14.658;2022-11-20T05:25:31;7.63;;;5.40;;
22571;SDS011;11452;53.368;14.658;2022-11-20T05:30:36;6.53;;;5.20;;
22571;SDS011;11452;53.368;14.658;2022-11-20T05:35:42;7.73;;;5.40;;
22571;SDS011;11452;53.368;14.658;2022-11-20T05:40:48;8.80;;;5.80;;
22571;SDS011;11452;53.368;14.658;2022-11-20T05:45:53;7.47;;;5.40;;
22571;SDS011;11452;53.368;14.658;2022-11-20T05:51:00;7.40;;;5.13;;
22571;SDS011;11452;53.368;14.658;2022-11-20T05:56:08;8.87;;;6.13;;
22571;SDS011;11452;53.368;14.658;2022-11-20T06:01:22;7.73;;;5.47;;
22571;SDS011;11452;53.368;14.658;2022-11-20T06:06:29;6.93;;;5.47;;
22571;SDS011;11452;53.368;14.658;2022-11-20T06:11:34;7.77;;;5.63;;
22571;SDS011;11452;53.368;14.658;2022-11-20T06:16:40;7.93;;;6.10;;
22571;SDS011;11452;53.368;14.658;2022-11-20T06:21:47;7.93;;;6.17;;
22571;SDS011;11452;53.368;14.658;2022-11-20T06:26:53;8.07;;;5.73;;
22571;SDS011;11452;53.368;14.658;2022-11-20T06:31:58;10.47;;;7.00;;
22571;SDS011;11452;53.368;14.658;2022-11-20T06:37:04;7.87;;;6.03;;
22571;SDS011;11452;53.368;14.658;2022-11-20T06:42:10;9.53;;;7.00;;
22571;SDS011;11452;53.368;14.658;2022-11-20T06:47:15;8.07;;;6.17;;
22571;SDS011;11452;53.368;14.658;2022-11-20T06:52:21;8.80;;;6.00;;
22571;SDS011;11452;53.368;14.658;2022-11-20T06:57:26;7.57;;;6.23;;
22571;SDS011;11452;53.368;14.658;2022-11-20T07:02:32;9.60;;;6.30;;
22571;SDS011;11452;53.368;14.658;2022-11-20T07:07:37;9.67;;;6.40;;
22571;SDS011;11452;53.368;14.658;2022-11-20T07:12:48;7.60;;;6.07;;
22571;SDS011;11452;53.368;14.658;2022-11-20T07:17:51;8.23;;;6.50;;
22571;SDS011;11452;53.368;14.658;2022-11-20T07:22:57;7.63;;;6.10;;
22571;SDS011;11452;53.368;14.658;2022-11-20T07:28:03;8.53;;;6.30;;
22571;SDS011;11452;53.368;14.658;2022-11-20T07:33:08;7.67;;;6.00;;
22571;SDS011;11452;53.368;14.658;2022-11-20T07:38:16;9.87;;;7.13;;
22571;SDS011;11452;53.368;14.658;2022-11-20T07:43:21;9.30;;;7.33;;
22571;SDS011;11452;53.368;14.658;2022-11-20T07:48:26;9.57;;;7.43;;
22571;SDS011;11452;53.368;14.658;2022-11-20T07:53:32;9.60;;;7.03;;
22571;SDS011;11452;53.368;14.658;2022-11-20T07:58:37;9.30;;;7.30;;
22571;SDS011;11452;53.368;14.658;2022-11-20T08:03:43;11.50;;;7.80;;
22571;SDS011;11452;53.368;14.658;2022-11-20T08:08:48;9.57;;;7.13;;
22571;SDS011;11452;53.368;14.658;2022-11-20T08:13:54;7.83;;;6.93;;
22571;SDS011;11452;53.368;14.658;2022-11-20T08:19:17;8.50;;;6.93;;
22571;SDS011;11452;53.368;14.658;2022-11-20T08:24:24;10.50;;;8.10;;
22571;SDS011;11452;53.368;14.658;2022-11-20T08:29:30;9.90;;;6.63;;
22571;SDS011;11452;53.368;14.658;2022-11-20T08:34:35;7.77;;;5.97;;
22571;SDS011;11452;53.368;14.658;2022-11-20T08:39:41;8.33;;;6.37;;
22571;SDS011;11452;53.368;14.658;2022-11-20T08:44:46;7.53;;;5.83;;
22571;SDS011;11452;53.368;14.658;2022-11-20T08:49:52;10.63;;;7.37;;
22571;SDS011;11452;53.368;14.658;2022-11-20T08:54:58;8.07;;;6.47;;
22571;SDS011;11452;53.368;14.658;2022-11-20T09:00:04;7.20;;;6.23;;
22571;SDS011;11452;53.368;14.658;2022-11-20T09:05:11;8.33;;;7.23;;
22571;SDS011;11452;53.368;14.658;2022-11-20T09:10:18;8.43;;;6.87;;
22571;SDS011;11452;53.368;14.658;2022-11-20T09:15:25;10.33;;;7.83;;
22571;SDS011;11452;53.368;14.658;2022-11-20T09:20:31;9.83;;;6.70;;
22571;SDS011;11452;53.368;14.658;2022-11-20T09:25:37;10.00;;;7.10;;
22571;SDS011;11452;53.368;14.658;2022-11-20T09:30:44;9.50;;;7.23;;
22571;SDS011;11452;53.368;14.658;2022-11-20T09:35:50;9.00;;;7.30;;
22571;SDS011;11452;53.368;14.658;2022-11-20T09:46:13;8.50;;;7.10;;
22571;SDS011;11452;53.368;14.658;2022-11-20T09:51:28;8.93;;;7.00;;
22571;SDS011;11452;53.368;14.658;2022-11-20T09:56:52;9.37;;;7.57;;
22571;SDS011;11452;53.368;14.658;2022-11-20T10:07:27;10.13;;;7.77;;
22571;SDS011;11452;53.368;14.658;2022-11-20T10:12:40;9.87;;;7.33;;
22571;SDS011;11452;53.368;14.658;2022-11-20T10:23:26;9.50;;;7.27;;
22571;SDS011;11452;53.368;14.658;2022-11-20T10:28:30;9.70;;;7.60;;
22571;SDS011;11452;53.368;14.658;2022-11-20T10:33:41;11.13;;;8.03;;
22571;SDS011;11452;53.368;14.658;2022-11-20T10:38:52;9.60;;;8.07;;
22571;SDS011;11452;53.368;14.658;2022-11-20T10:44:26;9.53;;;7.80;;
22571;SDS011;11452;53.368;14.658;2022-11-20T10:49:53;8.77;;;7.27;;
22571;SDS011;11452;53.368;14.658;2022-11-20T11:00:22;8.63;;;6.80;;
22571;SDS011;11452;53.368;14.658;2022-11-20T11:05:48;9.07;;;7.30;;
22571;SDS011;11452;53.368;14.658;2022-11-20T11:11:02;10.53;;;8.00;;
22571;SDS011;11452;53.368;14.658;2022-11-20T11:16:24;9.70;;;7.07;;
22571;SDS011;11452;53.368;14.658;2022-11-20T11:21:31;10.93;;;8.20;;
22571;SDS011;11452;53.368;14.658;2022-11-20T11:26:36;9.37;;;6.43;;
22571;SDS011;11452;53.368;14.658;2022-11-20T11:31:42;11.40;;;7.20;;
22571;SDS011;11452;53.368;14.658;2022-11-20T11:36:52;10.83;;;7.83;;
22571;SDS011;11452;53.368;14.658;2022-11-20T11:41:59;10.23;;;7.23;;
22571;SDS011;11452;53.368;14.658;2022-11-20T11:47:09;10.07;;;7.50;;
22571;SDS011;11452;53.368;14.658;2022-11-20T11:52:26;10.63;;;8.13;;
22571;SDS011;11452;53.368;14.658;2022-11-20T11:57:47;10.50;;;7.60;;
22571;SDS011;11452;53.368;14.658;2022-11-20T12:03:55;12.10;;;7.53;;
22571;SDS011;11452;53.368;14.658;2022-11-20T12:08:25;11.47;;;8.07;;
22571;SDS011;11452;53.368;14.658;2022-11-20T12:19:12;10.07;;;8.00;;
22571;SDS011;11452;53.368;14.658;2022-11-20T12:24:29;9.60;;;7.40;;
22571;SDS011;11452;53.368;14.658;2022-11-20T12:35:00;9.33;;;7.80;;
22571;SDS011;11452;53.368;14.658;2022-11-20T12:40:11;9.80;;;7.60;;
22571;SDS011;11452;53.368;14.658;2022-11-20T12:45:21;8.10;;;6.47;;
22571;SDS011;11452;53.368;14.658;2022-11-20T13:01:37;9.23;;;7.57;;
22571;SDS011;11452;53.368;14.658;2022-11-20T13:06:58;9.13;;;7.27;;
22571;SDS011;11452;53.368;14.658;2022-11-20T13:12:11;9.90;;;7.93;;
22571;SDS011;11452;53.368;14.658;2022-11-20T13:17:37;10.97;;;8.17;;
22571;SDS011;11452;53.368;14.658;2022-11-20T13:22:47;10.37;;;7.77;;
22571;SDS011;11452;53.368;14.658;2022-11-20T13:27:56;10.87;;;7.60;;
22571;SDS011;11452;53.368;14.658;2022-11-20T13:33:08;9.83;;;7.47;;
22571;SDS011;11452;53.368;14.658;2022-11-20T13:38:15;8.27;;;6.57;;
22571;SDS011;11452;53.368;14.658;2022-11-20T13:43:40;9.23;;;7.20;;
22571;SDS011;11452;53.368;14.658;2022-11-20T13:48:46;8.77;;;6.83;;
22571;SDS011;11452;53.368;14.658;2022-11-20T13:59:33;11.00;;;8.23;;
22571;SDS011;11452;53.368;14.658;2022-11-20T14:04:50;11.77;;;8.30;;
22571;SDS011;11452;53.368;14.658;2022-11-20T14:09:58;9.87;;;7.63;;
22571;SDS011;11452;53.368;14.658;2022-11-20T14:15:02;9.93;;;7.03;;
22571;SDS011;11452;53.368;14.658;2022-11-20T14:20:14;10.50;;;7.47;;
22571;SDS011;11452;53.368;14.658;2022-11-20T14:30:37;12.20;;;8.30;;
22571;SDS011;11452;53.368;14.658;2022-11-20T14:35:55;9.07;;;6.97;;
22571;SDS011;11452;53.368;14.658;2022-11-20T14:41:05;11.43;;;7.37;;
22571;SDS011;11452;53.368;14.658;2022-11-20T14:46:21;11.10;;;8.00;;
22571;SDS011;11452;53.368;14.658;2022-11-20T15:02:04;11.10;;;7.77;;
22571;SDS011;11452;53.368;14.658;2022-11-20T15:07:11;10.80;;;7.80;;
22571;SDS011;11452;53.368;14.658;2022-11-20T15:12:18;10.77;;;7.83;;
22571;SDS011;11452;53.368;14.658;2022-11-20T15:17:24;7.60;;;6.77;;
22571;SDS011;11452;53.368;14.658;2022-11-20T15:22:29;9.67;;;7.37;;
22571;SDS011;11452;53.368;14.658;2022-11-20T15:27:35;10.00;;;8.07;;
22571;SDS011;11452;53.368;14.658;2022-11-20T15:32:40;11.73;;;7.60;;
22571;SDS011;11452;53.368;14.658;2022-11-20T15:37:47;9.07;;;7.20;;
22571;SDS011;11452;53.368;14.658;2022-11-20T15:42:52;10.47;;;7.20;;
22571;SDS011;11452;53.368;14.658;2022-11-20T15:48:09;8.90;;;7.37;;
22571;SDS011;11452;53.368;14.658;2022-11-20T15:53:18;10.77;;;7.87;;
22571;SDS011;11452;53.368;14.658;2022-11-20T15:58:23;10.47;;;7.40;;
22571;SDS011;11452;53.368;14.658;2022-11-20T16:03:30;8.47;;;6.77;;
22571;SDS011;11452;53.368;14.658;2022-11-20T16:08:35;11.53;;;8.57;;
22571;SDS011;11452;53.368;14.658;2022-11-20T16:13:41;10.40;;;7.33;;
22571;SDS011;11452;53.368;14.658;2022-11-20T16:19:04;10.63;;;8.17;;
22571;SDS011;11452;53.368;14.658;2022-11-20T16:24:11;12.13;;;8.37;;
22571;SDS011;11452;53.368;14.658;2022-11-20T16:29:19;11.70;;;8.17;;
22571;SDS011;11452;53.368;14.658;2022-11-20T16:34:25;9.50;;;7.73;;
22571;SDS011;11452;53.368;14.658;2022-11-20T16:39:31;10.33;;;7.60;;
22571;SDS011;11452;53.368;14.658;2022-11-20T16:44:36;10.90;;;8.73;;
22571;SDS011;11452;53.368;14.658;2022-11-20T16:49:42;10.80;;;8.20;;
22571;SDS011;11452;53.368;14.658;2022-11-20T16:54:48;13.17;;;7.97;;
22571;SDS011;11452;53.368;14.658;2022-11-20T16:59:53;10.17;;;7.57;;
22571;SDS011;11452;53.368;14.658;2022-11-20T17:05:00;11.30;;;8.13;;
22571;SDS011;11452;53.368;14.658;2022-11-20T17:10:06;12.10;;;8.53;;
22571;SDS011;11452;53.368;14.658;2022-11-20T17:15:12;9.43;;;7.83;;
22571;SDS011;11452;53.368;14.658;2022-11-20T17:20:18;10.13;;;7.83;;
22571;SDS011;11452;53.368;14.658;2022-11-20T17:25:23;12.27;;;8.63;;
22571;SDS011;11452;53.368;14.658;2022-11-20T17:30:29;10.10;;;7.47;;
22571;SDS011;11452;53.368;14.658;2022-11-20T17:35:35;11.27;;;8.20;;
22571;SDS011;11452;53.368;14.658;2022-11-20T17:40:40;11.90;;;8.33;;
22571;SDS011;11452;53.368;14.658;2022-11-20T17:45:46;9.47;;;6.53;;
22571;SDS011;11452;53.368;14.658;2022-11-20T17:50:51;11.17;;;7.93;;
22571;SDS011;11452;53.368;14.658;2022-11-20T17:55:58;13.73;;;7.80;;
22571;SDS011;11452;53.368;14.658;2022-11-20T18:01:22;9.00;;;6.90;;
22571;SDS011;11452;53.368;14.658;2022-11-20T18:06:28;9.33;;;7.07;;
22571;SDS011;11452;53.368;14.658;2022-11-20T18:11:36;10.53;;;7.47;;
22571;SDS011;11452;53.368;14.658;2022-11-20T18:16:43;11.57;;;8.50;;
22571;SDS011;11452;53.368;14.658;2022-11-20T18:21:51;13.73;;;8.73;;
22571;SDS011;11452;53.368;14.658;2022-11-20T18:26:56;11.87;;;8.23;;
22571;SDS011;11452;53.368;14.658;2022-11-20T18:32:03;9.80;;;7.23;;
22571;SDS011;11452;53.368;14.658;2022-11-20T18:37:08;10.13;;;7.53;;
22571;SDS011;11452;53.368;14.658;2022-11-20T18:42:16;13.40;;;7.60;;
22571;SDS011;11452;53.368;14.658;2022-11-20T18:47:40;10.73;;;7.30;;
22571;SDS011;11452;53.368;14.658;2022-11-20T18:52:46;10.27;;;7.20;;
22571;SDS011;11452;53.368;14.658;2022-11-20T18:57:51;10.03;;;7.50;;
22571;SDS011;11452;53.368;14.658;2022-11-20T19:02:57;10.50;;;7.70;;
22571;SDS011;11452;53.368;14.658;2022-11-20T19:08:03;8.90;;;7.00;;
22571;SDS011;11452;53.368;14.658;2022-11-20T19:13:09;10.67;;;7.40;;
22571;SDS011;11452;53.368;14.658;2022-11-20T19:18:14;11.50;;;8.37;;
22571;SDS011;11452;53.368;14.658;2022-11-20T19:23:20;10.97;;;7.33;;
22571;SDS011;11452;53.368;14.658;2022-11-20T19:28:25;10.63;;;7.70;;
22571;SDS011;11452;53.368;14.658;2022-11-20T19:33:32;11.60;;;8.40;;
22571;SDS011;11452;53.368;14.658;2022-11-20T19:38:39;11.00;;;7.97;;
22571;SDS011;11452;53.368;14.658;2022-11-20T19:43:48;9.63;;;7.73;;
22571;SDS011;11452;53.368;14.658;2022-11-20T19:48:54;13.43;;;8.47;;
22571;SDS011;11452;53.368;14.658;2022-11-20T19:54:00;9.73;;;7.43;;
22571;SDS011;11452;53.368;14.658;2022-11-20T19:59:06;11.67;;;7.87;;
22571;SDS011;11452;53.368;14.658;2022-11-20T20:04:12;7.67;;;6.67;;
22571;SDS011;11452;53.368;14.658;2022-11-20T20:09:17;9.60;;;7.20;;
22571;SDS011;11452;53.368;14.658;2022-11-20T20:14:25;12.73;;;7.23;;
22571;SDS011;11452;53.368;14.658;2022-11-20T20:19:31;10.27;;;7.37;;
22571;SDS011;11452;53.368;14.658;2022-11-20T20:24:36;11.73;;;7.80;;
22571;SDS011;11452;53.368;14.658;2022-11-20T20:29:42;11.57;;;7.60;;
22571;SDS011;11452;53.368;14.658;2022-11-20T20:34:47;11.83;;;9.03;;
22571;SDS011;11452;53.368;14.658;2022-11-20T20:39:53;10.10;;;7.43;;
22571;SDS011;11452;53.368;14.658;2022-11-20T20:44:58;12.03;;;8.23;;
22571;SDS011;11452;53.368;14.658;2022-11-20T20:50:10;10.97;;;8.10;;
22571;SDS011;11452;53.368;14.658;2022-11-20T20:55:16;12.23;;;8.10;;
22571;SDS011;11452;53.368;14.658;2022-11-20T21:00:21;11.13;;;8.40;;
22571;SDS011;11452;53.368;14.658;2022-11-20T21:05:27;11.83;;;8.80;;
22571;SDS011;11452;53.368;14.658;2022-11-20T21:10:32;11.37;;;8.30;;
22571;SDS011;11452;53.368;14.658;2022-11-20T21:15:38;14.30;;;9.60;;
22571;SDS011;11452;53.368;14.658;2022-11-20T21:20:44;11.43;;;8.47;;
22571;SDS011;11452;53.368;14.658;2022-11-20T21:26:08;13.70;;;8.53;;
22571;SDS011;11452;53.368;14.658;2022-11-20T21:31:15;14.30;;;9.20;;
22571;SDS011;11452;53.368;14.658;2022-11-20T21:36:30;15.27;;;10.10;;
22571;SDS011;11452;53.368;14.658;2022-11-20T21:41:32;13.83;;;9.30;;
22571;SDS011;11452;53.368;14.658;2022-11-20T21:46:38;13.03;;;9.73;;
22571;SDS011;11452;53.368;14.658;2022-11-20T21:51:45;15.67;;;10.03;;
22571;SDS011;11452;53.368;14.658;2022-11-20T21:56:51;15.30;;;9.53;;
22571;SDS011;11452;53.368;14.658;2022-11-20T22:01:56;16.30;;;10.67;;
22571;SDS011;11452;53.368;14.658;2022-11-20T22:07:04;14.20;;;9.63;;
22571;SDS011;11452;53.368;14.658;2022-11-20T22:12:09;16.73;;;11.03;;
22571;SDS011;11452;53.368;14.658;2022-11-20T22:17:15;15.03;;;10.13;;
22571;SDS011;11452;53.368;14.658;2022-11-20T22:22:22;18.00;;;10.87;;
22571;SDS011;11452;53.368;14.658;2022-11-20T22:27:27;17.17;;;11.13;;
22571;SDS011;11452;53.368;14.658;2022-11-20T22:32:33;15.93;;;10.37;;
22571;SDS011;11452;53.368;14.658;2022-11-20T22:37:39;17.00;;;10.60;;
22571;SDS011;11452;53.368;14.658;2022-11-20T22:42:44;15.87;;;10.30;;
22571;SDS011;11452;53.368;14.658;2022-11-20T22:47:50;15.43;;;11.33;;
22571;SDS011;11452;53.368;14.658;2022-11-20T22:52:55;16.00;;;10.13;;
22571;SDS011;11452;53.368;14.658;2022-11-20T22:58:01;14.50;;;9.33;;
22571;SDS011;11452;53.368;14.658;2022-11-20T23:03:06;13.37;;;9.93;;
22571;SDS011;11452;53.368;14.658;2022-11-20T23:08:12;15.57;;;10.33;;
22571;SDS011;11452;53.368;14.658;2022-11-20T23:13:17;14.97;;;10.23;;
22571;SDS011;11452;53.368;14.658;2022-11-20T23:18:23;16.13;;;9.83;;
22571;SDS011;11452;53.368;14.658;2022-11-20T23:23:28;14.40;;;10.10;;
22571;SDS011;11452;53.368;14.658;2022-11-20T23:28:36;16.03;;;10.70;;
22571;SDS011;11452;53.368;14.658;2022-11-20T23:33:43;16.67;;;10.17;;
22571;SDS011;11452;53.368;14.658;2022-11-20T23:38:49;18.67;;;11.53;;
22571;SDS011;11452;53.368;14.658;2022-11-20T23:43:55;15.47;;;9.50;;
22571;SDS011;11452;53.368;14.658;2022-11-20T23:49:00;15.57;;;10.73;;
22571;SDS011;11452;53.368;14.658;2022-11-20T23:54:05;15.23;;;11.17;;
22571;SDS011;11452;53.368;14.658;2022-11-20T23:59:11;15.17;;;10.90;;
